sensor_id;sensor_type;location;lat;lon;timestamp;temperature;humidity
1351;DHT22;669;50.206;9.998;2024-02-26T00:00:12;2.50;10.20
1351;DHT22;669;50.206;9.998;2024-02-26T00:02:41;2.50;9.30
1351;DHT22;669;50.206;9.998;2024-02-26T00:05:09;2.50;9.30
1351;DHT22;669;50.206;9.998;2024-02-26T00:07:38;2.50;9.70
1351;DHT22;669;50.206;9.998;2024-02-26T00:10:07;2.50;9.80
1351;DHT22;669;50.206;9.998;2024-02-26T00:12:35;2.50;9.70
1351;DHT22;669;50.206;9.998;2024-02-26T00:15:06;2.50;9.40
1351;DHT22;669;50.206;9.998;2024-02-26T00:17:34;2.50;9.80
1351;DHT22;669;50.206;9.998;2024-02-26T00:20:03;2.50;10.10
1351;DHT22;669;50.206;9.998;2024-02-26T00:22:35;2.60;9.90
1351;DHT22;669;50.206;9.998;2024-02-26T00:25:06;2.60;9.80
1351;DHT22;669;50.206;9.998;2024-02-26T00:27:34;2.70;9.50
1351;DHT22;669;50.206;9.998;2024-02-26T00:30:01;2.70;9.10
1351;DHT22;669;50.206;9.998;2024-02-26T00:32:30;2.70;9.00
1351;DHT22;669;50.206;9.998;2024-02-26T00:34:57;2.70;9.60
1351;DHT22;669;50.206;9.998;2024-02-26T00:37:25;2.70;9.30
1351;DHT22;669;50.206;9.998;2024-02-26T00:39:53;2.70;9.40
1351;DHT22;669;50.206;9.998;2024-02-26T00:42:23;2.70;9.50
1351;DHT22;669;50.206;9.998;2024-02-26T00:44:51;2.70;9.70
1351;DHT22;669;50.206;9.998;2024-02-26T00:47:19;2.70;9.40
1351;DHT22;669;50.206;9.998;2024-02-26T00:49:46;2.80;9.10
1351;DHT22;669;50.206;9.998;2024-02-26T00:52:14;2.70;9.50
1351;DHT22;669;50.206;9.998;2024-02-26T00:54:42;2.80;9.40
1351;DHT22;669;50.206;9.998;2024-02-26T00:57:10;2.80;9.00
1351;DHT22;669;50.206;9.998;2024-02-26T00:59:40;2.80;8.80
1351;DHT22;669;50.206;9.998;2024-02-26T01:02:08;2.80;8.90
1351;DHT22;669;50.206;9.998;2024-02-26T01:04:35;2.80;8.60
1351;DHT22;669;50.206;9.998;2024-02-26T01:07:03;2.90;8.30
1351;DHT22;669;50.206;9.998;2024-02-26T01:09:32;2.90;8.10
1351;DHT22;669;50.206;9.998;2024-02-26T01:12:00;2.90;7.90
1351;DHT22;669;50.206;9.998;2024-02-26T01:14:29;2.90;7.70
1351;DHT22;669;50.206;9.998;2024-02-26T01:16:58;2.90;7.60
1351;DHT22;669;50.206;9.998;2024-02-26T01:19:26;2.90;7.60
1351;DHT22;669;50.206;9.998;2024-02-26T01:21:54;3.00;7.40
1351;DHT22;669;50.206;9.998;2024-02-26T01:24:22;3.00;7.60
1351;DHT22;669;50.206;9.998;2024-02-26T01:26:50;3.00;6.70
1351;DHT22;669;50.206;9.998;2024-02-26T01:29:18;3.00;6.80
1351;DHT22;669;50.206;9.998;2024-02-26T01:31:46;3.00;6.60
1351;DHT22;669;50.206;9.998;2024-02-26T01:34:15;3.10;6.70
1351;DHT22;669;50.206;9.998;2024-02-26T01:36:45;3.10;6.40
1351;DHT22;669;50.206;9.998;2024-02-26T01:39:13;3.10;6.30
1351;DHT22;669;50.206;9.998;2024-02-26T01:41:41;3.10;5.90
1351;DHT22;669;50.206;9.998;2024-02-26T01:44:12;3.00;6.20
1351;DHT22;669;50.206;9.998;2024-02-26T01:46:40;3.10;6.00
1351;DHT22;669;50.206;9.998;2024-02-26T01:49:08;3.00;5.80
1351;DHT22;669;50.206;9.998;2024-02-26T01:51:42;3.00;5.80
1351;DHT22;669;50.206;9.998;2024-02-26T01:54:11;3.00;5.80
1351;DHT22;669;50.206;9.998;2024-02-26T01:56:39;3.00;5.80
1351;DHT22;669;50.206;9.998;2024-02-26T01:59:08;2.90;5.70
1351;DHT22;669;50.206;9.998;2024-02-26T02:01:36;2.90;5.70
1351;DHT22;669;50.206;9.998;2024-02-26T02:04:06;2.90;5.70
1351;DHT22;669;50.206;9.998;2024-02-26T02:06:36;2.90;5.60
1351;DHT22;669;50.206;9.998;2024-02-26T02:09:06;2.90;5.50
1351;DHT22;669;50.206;9.998;2024-02-26T02:11:34;2.90;5.30
1351;DHT22;669;50.206;9.998;2024-02-26T02:14:02;2.90;5.40
1351;DHT22;669;50.206;9.998;2024-02-26T02:16:30;2.80;5.30
1351;DHT22;669;50.206;9.998;2024-02-26T02:18:59;2.80;5.50
1351;DHT22;669;50.206;9.998;2024-02-26T02:21:28;2.80;5.90
1351;DHT22;669;50.206;9.998;2024-02-26T02:23:56;2.90;5.90
1351;DHT22;669;50.206;9.998;2024-02-26T02:26:24;2.90;5.90
1351;DHT22;669;50.206;9.998;2024-02-26T02:28:53;2.90;6.40
1351;DHT22;669;50.206;9.998;2024-02-26T02:31:21;2.80;6.40
1351;DHT22;669;50.206;9.998;2024-02-26T02:33:49;2.80;6.70
1351;DHT22;669;50.206;9.998;2024-02-26T02:36:17;2.90;6.60
1351;DHT22;669;50.206;9.998;2024-02-26T02:38:50;2.90;6.30
1351;DHT22;669;50.206;9.998;2024-02-26T02:41:18;2.90;6.10
1351;DHT22;669;50.206;9.998;2024-02-26T02:43:46;2.90;6.00
1351;DHT22;669;50.206;9.998;2024-02-26T02:46:14;3.00;5.80
1351;DHT22;669;50.206;9.998;2024-02-26T02:48:42;3.10;5.80
1351;DHT22;669;50.206;9.998;2024-02-26T02:51:10;3.10;5.80
1351;DHT22;669;50.206;9.998;2024-02-26T02:53:38;3.10;5.80
1351;DHT22;669;50.206;9.998;2024-02-26T02:56:07;3.20;6.10
1351;DHT22;669;50.206;9.998;2024-02-26T02:58:35;3.20;6.10
1351;DHT22;669;50.206;9.998;2024-02-26T03:01:03;3.10;6.40
1351;DHT22;669;50.206;9.998;2024-02-26T03:03:31;3.10;6.70
1351;DHT22;669;50.206;9.998;2024-02-26T03:05:59;3.10;6.80
1351;DHT22;669;50.206;9.998;2024-02-26T03:08:28;3.10;6.80
1351;DHT22;669;50.206;9.998;2024-02-26T03:10:58;3.20;6.60
1351;DHT22;669;50.206;9.998;2024-02-26T03:13:27;3.20;6.80
1351;DHT22;669;50.206;9.998;2024-02-26T03:15:55;3.20;6.70
1351;DHT22;669;50.206;9.998;2024-02-26T03:18:24;3.20;7.10
1351;DHT22;669;50.206;9.998;2024-02-26T03:20:52;3.20;7.00
1351;DHT22;669;50.206;9.998;2024-02-26T03:23:20;3.20;6.80
1351;DHT22;669;50.206;9.998;2024-02-26T03:25:48;3.20;6.90
1351;DHT22;669;50.206;9.998;2024-02-26T03:28:16;3.20;6.30
1351;DHT22;669;50.206;9.998;2024-02-26T03:30:45;3.20;7.40
1351;DHT22;669;50.206;9.998;2024-02-26T03:33:13;3.20;7.20
1351;DHT22;669;50.206;9.998;2024-02-26T03:35:41;3.30;7.10
1351;DHT22;669;50.206;9.998;2024-02-26T03:38:09;3.30;6.80
1351;DHT22;669;50.206;9.998;2024-02-26T03:40:37;3.30;6.50
1351;DHT22;669;50.206;9.998;2024-02-26T03:43:05;3.30;6.90
1351;DHT22;669;50.206;9.998;2024-02-26T03:45:34;3.30;7.30
1351;DHT22;669;50.206;9.998;2024-02-26T03:48:04;3.30;7.50
1351;DHT22;669;50.206;9.998;2024-02-26T03:50:32;3.30;7.10
1351;DHT22;669;50.206;9.998;2024-02-26T03:53:01;3.30;6.90
1351;DHT22;669;50.206;9.998;2024-02-26T03:55:29;3.30;6.80
1351;DHT22;669;50.206;9.998;2024-02-26T03:57:57;3.30;6.80
1351;DHT22;669;50.206;9.998;2024-02-26T04:00:25;3.40;6.70
1351;DHT22;669;50.206;9.998;2024-02-26T04:02:56;3.40;6.50
1351;DHT22;669;50.206;9.998;2024-02-26T04:05:25;3.40;6.00
1351;DHT22;669;50.206;9.998;2024-02-26T04:07:53;3.40;5.50
1351;DHT22;669;50.206;9.998;2024-02-26T04:10:21;3.50;5.30
1351;DHT22;669;50.206;9.998;2024-02-26T04:12:49;3.50;5.70
1351;DHT22;669;50.206;9.998;2024-02-26T04:15:17;3.50;5.30
1351;DHT22;669;50.206;9.998;2024-02-26T04:17:45;3.60;5.30
1351;DHT22;669;50.206;9.998;2024-02-26T04:20:14;3.60;5.40
1351;DHT22;669;50.206;9.998;2024-02-26T04:22:44;3.60;5.40
1351;DHT22;669;50.206;9.998;2024-02-26T04:25:12;3.50;5.50
1351;DHT22;669;50.206;9.998;2024-02-26T04:27:40;3.60;5.70
1351;DHT22;669;50.206;9.998;2024-02-26T04:30:09;3.60;5.70
1351;DHT22;669;50.206;9.998;2024-02-26T04:32:37;3.60;5.30
1351;DHT22;669;50.206;9.998;2024-02-26T04:35:05;3.60;5.20
1351;DHT22;669;50.206;9.998;2024-02-26T04:37:33;3.60;4.90
1351;DHT22;669;50.206;9.998;2024-02-26T04:40:03;3.60;5.30
1351;DHT22;669;50.206;9.998;2024-02-26T04:42:31;3.60;6.00
1351;DHT22;669;50.206;9.998;2024-02-26T04:44:59;3.60;5.60
1351;DHT22;669;50.206;9.998;2024-02-26T04:47:27;3.60;5.90
1351;DHT22;669;50.206;9.998;2024-02-26T04:49:55;3.60;5.60
1351;DHT22;669;50.206;9.998;2024-02-26T04:52:22;3.60;5.40
1351;DHT22;669;50.206;9.998;2024-02-26T04:54:51;3.60;5.10
1351;DHT22;669;50.206;9.998;2024-02-26T04:57:21;3.60;5.00
1351;DHT22;669;50.206;9.998;2024-02-26T04:59:49;3.60;5.00
1351;DHT22;669;50.206;9.998;2024-02-26T05:02:17;3.70;4.60
1351;DHT22;669;50.206;9.998;2024-02-26T05:04:45;3.70;4.50
1351;DHT22;669;50.206;9.998;2024-02-26T05:07:13;3.70;4.50
1351;DHT22;669;50.206;9.998;2024-02-26T05:09:41;3.70;4.60
1351;DHT22;669;50.206;9.998;2024-02-26T05:12:10;3.70;4.50
1351;DHT22;669;50.206;9.998;2024-02-26T05:14:39;3.70;4.50
1351;DHT22;669;50.206;9.998;2024-02-26T05:17:07;3.70;4.50
1351;DHT22;669;50.206;9.998;2024-02-26T05:19:35;3.70;4.60
1351;DHT22;669;50.206;9.998;2024-02-26T05:22:03;3.70;4.50
1351;DHT22;669;50.206;9.998;2024-02-26T05:24:31;3.70;4.50
1351;DHT22;669;50.206;9.998;2024-02-26T05:26:59;3.60;5.10
1351;DHT22;669;50.206;9.998;2024-02-26T05:29:27;3.60;5.50
1351;DHT22;669;50.206;9.998;2024-02-26T05:31:56;3.60;5.70
1351;DHT22;669;50.206;9.998;2024-02-26T05:34:24;3.60;5.50
1351;DHT22;669;50.206;9.998;2024-02-26T05:36:53;3.60;5.40
1351;DHT22;669;50.206;9.998;2024-02-26T05:39:20;3.60;5.10
1351;DHT22;669;50.206;9.998;2024-02-26T05:41:48;3.50;5.10
1351;DHT22;669;50.206;9.998;2024-02-26T05:44:16;3.50;5.20
1351;DHT22;669;50.206;9.998;2024-02-26T05:46:44;3.60;4.90
1351;DHT22;669;50.206;9.998;2024-02-26T05:49:13;3.50;4.60
1351;DHT22;669;50.206;9.998;2024-02-26T05:51:41;3.60;4.70
1351;DHT22;669;50.206;9.998;2024-02-26T05:54:09;3.50;5.00
1351;DHT22;669;50.206;9.998;2024-02-26T05:56:37;3.50;5.20
1351;DHT22;669;50.206;9.998;2024-02-26T05:59:05;3.50;5.40
1351;DHT22;669;50.206;9.998;2024-02-26T06:01:33;3.40;5.30
1351;DHT22;669;50.206;9.998;2024-02-26T06:04:01;3.40;5.10
1351;DHT22;669;50.206;9.998;2024-02-26T06:06:31;3.50;5.20
1351;DHT22;669;50.206;9.998;2024-02-26T06:08:59;3.50;5.00
1351;DHT22;669;50.206;9.998;2024-02-26T06:11:27;3.50;4.70
1351;DHT22;669;50.206;9.998;2024-02-26T06:13:55;3.50;4.40
1351;DHT22;669;50.206;9.998;2024-02-26T06:16:24;3.50;4.40
1351;DHT22;669;50.206;9.998;2024-02-26T06:18:52;3.60;4.20
1351;DHT22;669;50.206;9.998;2024-02-26T06:21:20;3.60;4.60
1351;DHT22;669;50.206;9.998;2024-02-26T06:23:49;3.70;4.50
1351;DHT22;669;50.206;9.998;2024-02-26T06:26:17;3.70;4.60
1351;DHT22;669;50.206;9.998;2024-02-26T06:28:46;3.70;4.00
1351;DHT22;669;50.206;9.998;2024-02-26T06:31:14;3.80;4.10
1351;DHT22;669;50.206;9.998;2024-02-26T06:33:42;3.80;3.80
1351;DHT22;669;50.206;9.998;2024-02-26T06:36:10;3.80;3.80
1351;DHT22;669;50.206;9.998;2024-02-26T06:38:38;3.90;3.90
1351;DHT22;669;50.206;9.998;2024-02-26T06:41:07;3.90;3.80
1351;DHT22;669;50.206;9.998;2024-02-26T06:43:35;3.90;3.80
1351;DHT22;669;50.206;9.998;2024-02-26T06:46:03;3.90;3.70
1351;DHT22;669;50.206;9.998;2024-02-26T06:48:31;3.90;3.90
1351;DHT22;669;50.206;9.998;2024-02-26T06:50:59;4.00;3.80
1351;DHT22;669;50.206;9.998;2024-02-26T06:53:27;4.00;3.60
1351;DHT22;669;50.206;9.998;2024-02-26T06:55:55;4.00;3.60
1351;DHT22;669;50.206;9.998;2024-02-26T06:58:25;4.10;3.80
1351;DHT22;669;50.206;9.998;2024-02-26T07:00:53;4.10;3.80
1351;DHT22;669;50.206;9.998;2024-02-26T07:03:21;4.10;3.60
1351;DHT22;669;50.206;9.998;2024-02-26T07:05:51;4.10;3.50
1351;DHT22;669;50.206;9.998;2024-02-26T07:08:19;4.20;3.40
1351;DHT22;669;50.206;9.998;2024-02-26T07:10:48;4.20;3.30
1351;DHT22;669;50.206;9.998;2024-02-26T07:13:16;4.20;3.50
1351;DHT22;669;50.206;9.998;2024-02-26T07:15:45;4.20;3.30
1351;DHT22;669;50.206;9.998;2024-02-26T07:18:13;4.20;4.00
1351;DHT22;669;50.206;9.998;2024-02-26T07:20:41;4.30;4.30
1351;DHT22;669;50.206;9.998;2024-02-26T07:23:09;4.40;4.00
1351;DHT22;669;50.206;9.998;2024-02-26T07:25:37;4.40;3.50
1351;DHT22;669;50.206;9.998;2024-02-26T07:28:05;4.50;3.60
1351;DHT22;669;50.206;9.998;2024-02-26T07:30:33;4.50;3.20
1351;DHT22;669;50.206;9.998;2024-02-26T07:33:02;4.60;3.20
1351;DHT22;669;50.206;9.998;2024-02-26T07:35:31;4.60;3.70
1351;DHT22;669;50.206;9.998;2024-02-26T07:38:00;4.70;4.10
1351;DHT22;669;50.206;9.998;2024-02-26T07:40:28;4.60;4.10
1351;DHT22;669;50.206;9.998;2024-02-26T07:42:55;4.70;4.10
1351;DHT22;669;50.206;9.998;2024-02-26T07:45:23;4.70;4.30
1351;DHT22;669;50.206;9.998;2024-02-26T07:47:51;4.70;5.10
1351;DHT22;669;50.206;9.998;2024-02-26T07:50:21;4.70;5.20
1351;DHT22;669;50.206;9.998;2024-02-26T07:52:49;4.70;4.30
1351;DHT22;669;50.206;9.998;2024-02-26T07:55:18;4.80;3.60
1351;DHT22;669;50.206;9.998;2024-02-26T07:57:46;4.80;2.90
1351;DHT22;669;50.206;9.998;2024-02-26T08:00:13;5.00;3.20
1351;DHT22;669;50.206;9.998;2024-02-26T08:02:43;5.10;2.50
1351;DHT22;669;50.206;9.998;2024-02-26T08:05:11;5.30;2.60
1351;DHT22;669;50.206;9.998;2024-02-26T08:07:41;5.40;2.10
1351;DHT22;669;50.206;9.998;2024-02-26T08:10:09;5.60;2.00
1351;DHT22;669;50.206;9.998;2024-02-26T08:12:37;5.70;1.70
1351;DHT22;669;50.206;9.998;2024-02-26T08:15:06;5.80;1.00
1351;DHT22;669;50.206;9.998;2024-02-26T08:17:34;5.90;1.00
1351;DHT22;669;50.206;9.998;2024-02-26T08:20:03;6.00;1.00
1351;DHT22;669;50.206;9.998;2024-02-26T08:22:31;6.10;1.00
1351;DHT22;669;50.206;9.998;2024-02-26T08:25:01;6.10;1.00
1351;DHT22;669;50.206;9.998;2024-02-26T08:27:33;6.10;1.00
1351;DHT22;669;50.206;9.998;2024-02-26T08:30:01;6.20;1.00
1351;DHT22;669;50.206;9.998;2024-02-26T08:32:29;6.20;1.00
1351;DHT22;669;50.206;9.998;2024-02-26T08:34:57;6.30;1.00
1351;DHT22;669;50.206;9.998;2024-02-26T08:37:25;6.30;1.00
1351;DHT22;669;50.206;9.998;2024-02-26T08:39:53;6.40;1.00
1351;DHT22;669;50.206;9.998;2024-02-26T08:42:22;6.50;1.00
1351;DHT22;669;50.206;9.998;2024-02-26T08:44:51;6.60;1.00
1351;DHT22;669;50.206;9.998;2024-02-26T08:47:21;6.70;1.00
1351;DHT22;669;50.206;9.998;2024-02-26T08:49:49;6.70;1.00
1351;DHT22;669;50.206;9.998;2024-02-26T08:52:17;6.70;1.00
1351;DHT22;669;50.206;9.998;2024-02-26T08:54:45;6.80;1.00
1351;DHT22;669;50.206;9.998;2024-02-26T08:57:13;6.90;1.00
1351;DHT22;669;50.206;9.998;2024-02-26T08:59:42;6.90;1.00
1351;DHT22;669;50.206;9.998;2024-02-26T09:02:10;7.00;1.00
1351;DHT22;669;50.206;9.998;2024-02-26T09:04:38;7.10;1.00
1351;DHT22;669;50.206;9.998;2024-02-26T09:07:06;7.10;1.00
1351;DHT22;669;50.206;9.998;2024-02-26T09:09:34;7.30;1.00
1351;DHT22;669;50.206;9.998;2024-02-26T09:12:04;7.30;1.00
1351;DHT22;669;50.206;9.998;2024-02-26T09:14:32;7.40;1.00
1351;DHT22;669;50.206;9.998;2024-02-26T09:17:01;7.40;1.00
1351;DHT22;669;50.206;9.998;2024-02-26T09:19:29;7.40;1.00
1351;DHT22;669;50.206;9.998;2024-02-26T09:21:57;7.50;1.00
1351;DHT22;669;50.206;9.998;2024-02-26T09:24:26;7.50;1.00
1351;DHT22;669;50.206;9.998;2024-02-26T09:26:55;7.50;1.00
1351;DHT22;669;50.206;9.998;2024-02-26T09:29:23;7.40;1.00
1351;DHT22;669;50.206;9.998;2024-02-26T09:31:53;7.40;1.00
1351;DHT22;669;50.206;9.998;2024-02-26T09:34:22;7.40;1.00
1351;DHT22;669;50.206;9.998;2024-02-26T09:36:50;7.30;1.00
1351;DHT22;669;50.206;9.998;2024-02-26T09:39:18;7.30;1.00
1351;DHT22;669;50.206;9.998;2024-02-26T09:41:48;7.40;1.00
1351;DHT22;669;50.206;9.998;2024-02-26T09:44:19;7.50;1.00
1351;DHT22;669;50.206;9.998;2024-02-26T09:46:48;7.50;1.00
1351;DHT22;669;50.206;9.998;2024-02-26T09:49:17;7.40;1.00
1351;DHT22;669;50.206;9.998;2024-02-26T09:51:49;7.40;1.00
1351;DHT22;669;50.206;9.998;2024-02-26T09:54:18;7.40;1.00
1351;DHT22;669;50.206;9.998;2024-02-26T09:56:49;7.60;1.00
1351;DHT22;669;50.206;9.998;2024-02-26T09:59:30;7.80;1.00
1351;DHT22;669;50.206;9.998;2024-02-26T10:02:03;7.80;1.00
1351;DHT22;669;50.206;9.998;2024-02-26T10:04:32;7.80;1.00
1351;DHT22;669;50.206;9.998;2024-02-26T10:07:01;7.90;1.00
1351;DHT22;669;50.206;9.998;2024-02-26T10:09:32;7.90;1.00
1351;DHT22;669;50.206;9.998;2024-02-26T10:12:00;7.90;1.00
1351;DHT22;669;50.206;9.998;2024-02-26T10:14:28;8.00;1.00
1351;DHT22;669;50.206;9.998;2024-02-26T10:16:56;8.00;1.00
1351;DHT22;669;50.206;9.998;2024-02-26T10:19:28;8.00;1.00
1351;DHT22;669;50.206;9.998;2024-02-26T10:21:57;8.10;1.00
1351;DHT22;669;50.206;9.998;2024-02-26T10:24:27;8.20;1.00
1351;DHT22;669;50.206;9.998;2024-02-26T10:26:56;8.20;1.00
1351;DHT22;669;50.206;9.998;2024-02-26T10:29:25;8.20;1.00
1351;DHT22;669;50.206;9.998;2024-02-26T10:31:53;8.30;1.00
1351;DHT22;669;50.206;9.998;2024-02-26T10:34:21;8.40;1.00
1351;DHT22;669;50.206;9.998;2024-02-26T10:36:50;8.30;1.00
1351;DHT22;669;50.206;9.998;2024-02-26T10:39:20;8.40;1.00
1351;DHT22;669;50.206;9.998;2024-02-26T10:41:50;8.40;1.00
1351;DHT22;669;50.206;9.998;2024-02-26T10:44:19;8.50;1.00
1351;DHT22;669;50.206;9.998;2024-02-26T10:46:48;8.70;1.00
1351;DHT22;669;50.206;9.998;2024-02-26T10:49:17;8.90;1.00
1351;DHT22;669;50.206;9.998;2024-02-26T10:51:53;9.00;1.00
1351;DHT22;669;50.206;9.998;2024-02-26T10:54:25;8.90;1.00
1351;DHT22;669;50.206;9.998;2024-02-26T10:56:56;8.90;1.00
1351;DHT22;669;50.206;9.998;2024-02-26T10:59:24;9.00;1.00
1351;DHT22;669;50.206;9.998;2024-02-26T11:01:53;8.90;1.00
1351;DHT22;669;50.206;9.998;2024-02-26T11:04:23;9.00;1.00
1351;DHT22;669;50.206;9.998;2024-02-26T11:06:54;9.10;1.00
1351;DHT22;669;50.206;9.998;2024-02-26T11:09:24;9.30;1.00
1351;DHT22;669;50.206;9.998;2024-02-26T11:11:54;9.40;1.00
1351;DHT22;669;50.206;9.998;2024-02-26T11:14:25;9.60;1.00
1351;DHT22;669;50.206;9.998;2024-02-26T11:16:55;9.70;1.00
1351;DHT22;669;50.206;9.998;2024-02-26T11:19:24;9.90;1.00
1351;DHT22;669;50.206;9.998;2024-02-26T11:21:52;9.90;1.00
1351;DHT22;669;50.206;9.998;2024-02-26T11:24:20;9.90;1.00
1351;DHT22;669;50.206;9.998;2024-02-26T11:26:51;9.90;1.00
1351;DHT22;669;50.206;9.998;2024-02-26T11:29:29;9.90;1.00
1351;DHT22;669;50.206;9.998;2024-02-26T11:32:00;9.80;1.00
1351;DHT22;669;50.206;9.998;2024-02-26T11:34:28;9.80;1.00
1351;DHT22;669;50.206;9.998;2024-02-26T11:36:57;9.70;1.00
1351;DHT22;669;50.206;9.998;2024-02-26T11:39:25;9.70;1.00
1351;DHT22;669;50.206;9.998;2024-02-26T11:41:54;9.70;1.00
1351;DHT22;669;50.206;9.998;2024-02-26T11:44:30;9.80;1.00
1351;DHT22;669;50.206;9.998;2024-02-26T11:46:57;9.70;1.00
1351;DHT22;669;50.206;9.998;2024-02-26T11:49:30;9.80;1.00
1351;DHT22;669;50.206;9.998;2024-02-26T11:51:59;9.80;1.00
1351;DHT22;669;50.206;9.998;2024-02-26T11:54:43;9.80;1.00
1351;DHT22;669;50.206;9.998;2024-02-26T11:57:25;9.90;1.00
1351;DHT22;669;50.206;9.998;2024-02-26T11:59:57;10.00;1.00
1351;DHT22;669;50.206;9.998;2024-02-26T12:02:44;10.00;1.00
1351;DHT22;669;50.206;9.998;2024-02-26T12:05:15;10.10;1.00
1351;DHT22;669;50.206;9.998;2024-02-26T12:07:45;10.10;1.00
1351;DHT22;669;50.206;9.998;2024-02-26T12:10:17;10.00;1.00
1351;DHT22;669;50.206;9.998;2024-02-26T12:12:45;10.00;1.00
1351;DHT22;669;50.206;9.998;2024-02-26T12:15:15;10.10;1.00
1351;DHT22;669;50.206;9.998;2024-02-26T12:17:48;10.00;1.00
1351;DHT22;669;50.206;9.998;2024-02-26T12:20:17;10.00;1.00
1351;DHT22;669;50.206;9.998;2024-02-26T12:22:47;10.00;1.00
1351;DHT22;669;50.206;9.998;2024-02-26T12:25:16;10.00;1.00
1351;DHT22;669;50.206;9.998;2024-02-26T12:27:44;10.00;1.00
1351;DHT22;669;50.206;9.998;2024-02-26T12:30:14;9.90;1.00
1351;DHT22;669;50.206;9.998;2024-02-26T12:32:42;9.90;1.00
1351;DHT22;669;50.206;9.998;2024-02-26T12:35:10;9.90;1.00
1351;DHT22;669;50.206;9.998;2024-02-26T12:37:38;9.80;1.00
1351;DHT22;669;50.206;9.998;2024-02-26T12:40:11;9.80;1.00
1351;DHT22;669;50.206;9.998;2024-02-26T12:42:39;9.90;1.00
1351;DHT22;669;50.206;9.998;2024-02-26T12:45:09;9.90;1.00
1351;DHT22;669;50.206;9.998;2024-02-26T12:47:38;9.90;1.00
1351;DHT22;669;50.206;9.998;2024-02-26T12:50:08;9.90;1.00
1351;DHT22;669;50.206;9.998;2024-02-26T12:52:39;9.80;1.00
1351;DHT22;669;50.206;9.998;2024-02-26T12:55:07;9.70;1.00
1351;DHT22;669;50.206;9.998;2024-02-26T12:57:37;9.70;1.00
1351;DHT22;669;50.206;9.998;2024-02-26T13:00:07;9.70;1.00
1351;DHT22;669;50.206;9.998;2024-02-26T13:02:39;9.70;1.00
1351;DHT22;669;50.206;9.998;2024-02-26T13:05:10;9.70;1.00
1351;DHT22;669;50.206;9.998;2024-02-26T13:07:41;9.60;1.00
1351;DHT22;669;50.206;9.998;2024-02-26T13:10:10;9.70;1.00
1351;DHT22;669;50.206;9.998;2024-02-26T13:12:43;9.90;1.00
1351;DHT22;669;50.206;9.998;2024-02-26T13:15:15;9.90;1.00
1351;DHT22;669;50.206;9.998;2024-02-26T13:17:45;10.10;1.00
1351;DHT22;669;50.206;9.998;2024-02-26T13:20:25;10.20;1.00
1351;DHT22;669;50.206;9.998;2024-02-26T13:23:00;10.30;1.00
1351;DHT22;669;50.206;9.998;2024-02-26T13:25:28;10.40;1.00
1351;DHT22;669;50.206;9.998;2024-02-26T13:28:07;10.50;1.00
1351;DHT22;669;50.206;9.998;2024-02-26T13:30:36;10.50;1.00
1351;DHT22;669;50.206;9.998;2024-02-26T13:33:09;10.40;1.00
1351;DHT22;669;50.206;9.998;2024-02-26T13:35:38;10.40;1.00
1351;DHT22;669;50.206;9.998;2024-02-26T13:38:07;10.50;1.00
1351;DHT22;669;50.206;9.998;2024-02-26T13:40:35;10.70;1.00
1351;DHT22;669;50.206;9.998;2024-02-26T13:43:03;10.80;1.00
1351;DHT22;669;50.206;9.998;2024-02-26T13:45:34;10.90;1.00
1351;DHT22;669;50.206;9.998;2024-02-26T13:48:04;10.90;1.00
1351;DHT22;669;50.206;9.998;2024-02-26T13:50:33;11.00;1.00
1351;DHT22;669;50.206;9.998;2024-02-26T13:53:02;11.10;1.00
1351;DHT22;669;50.206;9.998;2024-02-26T13:55:31;10.90;1.00
1351;DHT22;669;50.206;9.998;2024-02-26T13:57:59;10.90;1.00
1351;DHT22;669;50.206;9.998;2024-02-26T14:00:28;10.80;1.00
1351;DHT22;669;50.206;9.998;2024-02-26T14:02:58;10.70;1.00
1351;DHT22;669;50.206;9.998;2024-02-26T14:05:27;10.60;1.00
1351;DHT22;669;50.206;9.998;2024-02-26T14:07:56;10.50;1.00
1351;DHT22;669;50.206;9.998;2024-02-26T14:10:24;10.40;1.00
1351;DHT22;669;50.206;9.998;2024-02-26T14:12:52;10.40;1.00
1351;DHT22;669;50.206;9.998;2024-02-26T14:15:20;10.40;1.00
1351;DHT22;669;50.206;9.998;2024-02-26T14:17:48;10.30;1.00
1351;DHT22;669;50.206;9.998;2024-02-26T14:20:21;10.30;1.00
1351;DHT22;669;50.206;9.998;2024-02-26T14:22:50;10.30;1.00
1351;DHT22;669;50.206;9.998;2024-02-26T14:25:21;10.30;1.00
1351;DHT22;669;50.206;9.998;2024-02-26T14:27:51;10.30;1.00
1351;DHT22;669;50.206;9.998;2024-02-26T14:30:19;10.30;1.00
1351;DHT22;669;50.206;9.998;2024-02-26T14:32:47;10.30;1.00
1351;DHT22;669;50.206;9.998;2024-02-26T14:35:15;10.20;1.00
1351;DHT22;669;50.206;9.998;2024-02-26T14:37:44;10.20;1.00
1351;DHT22;669;50.206;9.998;2024-02-26T14:40:14;10.20;1.00
1351;DHT22;669;50.206;9.998;2024-02-26T14:42:44;10.30;1.00
1351;DHT22;669;50.206;9.998;2024-02-26T14:45:12;10.30;1.00
1351;DHT22;669;50.206;9.998;2024-02-26T14:47:40;10.30;1.00
1351;DHT22;669;50.206;9.998;2024-02-26T14:50:09;10.40;1.00
1351;DHT22;669;50.206;9.998;2024-02-26T14:52:37;10.40;1.00
1351;DHT22;669;50.206;9.998;2024-02-26T14:55:06;10.50;1.00
1351;DHT22;669;50.206;9.998;2024-02-26T14:57:34;10.50;1.00
1351;DHT22;669;50.206;9.998;2024-02-26T15:00:04;10.50;1.00
1351;DHT22;669;50.206;9.998;2024-02-26T15:02:34;10.50;1.00
1351;DHT22;669;50.206;9.998;2024-02-26T15:05:02;10.40;1.00
1351;DHT22;669;50.206;9.998;2024-02-26T15:07:31;10.40;1.00
1351;DHT22;669;50.206;9.998;2024-02-26T15:09:59;10.30;1.00
1351;DHT22;669;50.206;9.998;2024-02-26T15:12:28;10.30;1.00
1351;DHT22;669;50.206;9.998;2024-02-26T15:14:56;10.30;1.00
1351;DHT22;669;50.206;9.998;2024-02-26T15:17:26;10.30;1.00
1351;DHT22;669;50.206;9.998;2024-02-26T15:19:55;10.30;1.00
1351;DHT22;669;50.206;9.998;2024-02-26T15:22:25;10.30;1.00
1351;DHT22;669;50.206;9.998;2024-02-26T15:24:54;10.40;1.00
1351;DHT22;669;50.206;9.998;2024-02-26T15:27:22;10.40;1.00
1351;DHT22;669;50.206;9.998;2024-02-26T15:29:50;10.40;1.00
1351;DHT22;669;50.206;9.998;2024-02-26T15:32:26;10.50;1.00
1351;DHT22;669;50.206;9.998;2024-02-26T15:34:54;10.50;1.00
1351;DHT22;669;50.206;9.998;2024-02-26T15:37:23;10.50;1.00
1351;DHT22;669;50.206;9.998;2024-02-26T15:39:51;10.50;1.00
1351;DHT22;669;50.206;9.998;2024-02-26T15:42:19;10.50;1.00
1351;DHT22;669;50.206;9.998;2024-02-26T15:44:47;10.50;1.00
1351;DHT22;669;50.206;9.998;2024-02-26T15:47:15;10.50;1.00
1351;DHT22;669;50.206;9.998;2024-02-26T15:49:45;10.50;1.00
1351;DHT22;669;50.206;9.998;2024-02-26T15:52:13;10.50;1.00
1351;DHT22;669;50.206;9.998;2024-02-26T15:54:41;10.40;1.00
1351;DHT22;669;50.206;9.998;2024-02-26T15:57:11;10.30;1.00
1351;DHT22;669;50.206;9.998;2024-02-26T15:59:40;10.30;1.00
1351;DHT22;669;50.206;9.998;2024-02-26T16:02:07;10.20;1.00
1351;DHT22;669;50.206;9.998;2024-02-26T16:04:35;10.10;1.00
1351;DHT22;669;50.206;9.998;2024-02-26T16:07:05;10.00;1.00
1351;DHT22;669;50.206;9.998;2024-02-26T16:09:39;9.90;1.00
1351;DHT22;669;50.206;9.998;2024-02-26T16:12:13;9.90;1.00
1351;DHT22;669;50.206;9.998;2024-02-26T16:14:47;9.80;1.00
1351;DHT22;669;50.206;9.998;2024-02-26T16:17:19;9.70;1.00
1351;DHT22;669;50.206;9.998;2024-02-26T16:19:47;9.70;1.00
1351;DHT22;669;50.206;9.998;2024-02-26T16:22:17;9.60;1.00
1351;DHT22;669;50.206;9.998;2024-02-26T16:24:45;9.60;1.00
1351;DHT22;669;50.206;9.998;2024-02-26T16:27:13;9.50;1.00
1351;DHT22;669;50.206;9.998;2024-02-26T16:29:41;9.50;1.00
1351;DHT22;669;50.206;9.998;2024-02-26T16:32:09;9.50;1.00
1351;DHT22;669;50.206;9.998;2024-02-26T16:34:37;9.40;1.00
1351;DHT22;669;50.206;9.998;2024-02-26T16:37:09;9.40;1.00
1351;DHT22;669;50.206;9.998;2024-02-26T16:39:39;9.30;1.00
1351;DHT22;669;50.206;9.998;2024-02-26T16:42:09;9.30;1.00
1351;DHT22;669;50.206;9.998;2024-02-26T16:44:39;9.30;1.00
1351;DHT22;669;50.206;9.998;2024-02-26T16:47:07;9.20;1.00
1351;DHT22;669;50.206;9.998;2024-02-26T16:49:35;9.20;1.00
1351;DHT22;669;50.206;9.998;2024-02-26T16:52:04;9.10;1.00
1351;DHT22;669;50.206;9.998;2024-02-26T16:54:32;9.10;1.00
1351;DHT22;669;50.206;9.998;2024-02-26T16:57:01;9.00;1.00
1351;DHT22;669;50.206;9.998;2024-02-26T16:59:29;9.00;1.00